Terminal Aerodrome Forecast
Issued by NWS Cleveland, OH

Home | Current Version | Previous Version | Graphics & Text | Print | Product List | Glossary On
Versions: 1 2 3 4 5 6 7 8 9 10 11 12 13 14 15 16 17 18 19 20 21 22 23
000
FTUS41 KCLE 020533
TAFYNG
TAF
KYNG 020533Z 0206/0306 02008KT 4SM -SHRA BR OVC006
      TEMPO 0206/0208 2SM -TSRA BR OVC004CB
     FM020830 08006KT 4SM -DZ BR OVC008
     FM020930 03006KT 4SM -TSRA BR OVC005CB
     FM021030 34008KT 6SM BR OVC003
     FM021600 34008KT P6SM OVC007
     FM021800 35007KT P6SM OVC015
     FM030100 02005KT P6SM OVC035=

USA.gov is the U.S. government's official web portal to all federal, state and local government web resources and services.